createdAt,value
2023-03-02T00:05:29.531Z,99.90
2023-03-02T00:20:31.502Z,99.90
2023-03-02T00:35:41.371Z,99.90
2023-03-02T00:50:43.419Z,99.90
2023-03-02T01:05:45.418Z,99.90
2023-03-02T01:20:47.619Z,99.90
2023-03-02T01:35:50.002Z,99.90
2023-03-02T01:50:54.468Z,99.90
2023-03-02T02:06:02.258Z,99.90
2023-03-02T02:21:05.156Z,99.90
2023-03-02T02:36:16.105Z,99.90
2023-03-02T02:51:26.730Z,99.90
2023-03-02T03:06:38.540Z,99.90
2023-03-02T03:21:40.591Z,99.90
2023-03-02T03:36:43.652Z,99.90
2023-03-02T03:51:46.021Z,99.90
2023-03-02T04:06:48.377Z,99.90
2023-03-02T04:21:53.217Z,99.90
2023-03-02T04:36:55.758Z,99.90
2023-03-02T04:51:57.721Z,99.90
2023-03-02T05:07:00.104Z,99.90
2023-03-02T05:22:02.498Z,99.90
2023-03-02T05:37:04.534Z,99.90
2023-03-02T05:52:06.462Z,99.90
2023-03-02T06:07:08.889Z,99.90
2023-03-02T06:22:10.829Z,99.90
2023-03-02T06:37:12.856Z,99.90
2023-03-02T06:52:15.029Z,99.90
2023-03-02T07:07:17.019Z,99.90
2023-03-02T07:22:18.964Z,99.90
2023-03-02T07:37:21.000Z,99.90
2023-03-02T07:52:23.020Z,99.90
2023-03-02T08:07:25.064Z,99.90
2023-03-02T08:22:27.079Z,99.90
2023-03-02T08:37:29.084Z,99.90
2023-03-02T08:52:34.596Z,99.90
2023-03-02T09:07:36.614Z,95.10
2023-03-02T09:22:38.660Z,90.70
2023-03-02T09:37:42.258Z,85.20
2023-03-02T09:52:56.268Z,85.20
2023-03-02T10:07:59.446Z,86.30
2023-03-02T10:23:38.294Z,79.00
2023-03-02T10:38:40.445Z,79.30
2023-03-02T10:53:42.392Z,80.70
2023-03-02T11:08:44.789Z,78.80
2023-03-02T11:23:52.421Z,80.00
2023-03-02T11:38:55.662Z,81.00
2023-03-02T11:54:01.228Z,83.20
2023-03-02T12:09:38.266Z,82.80
2023-03-02T12:24:44.017Z,85.80
2023-03-02T12:39:45.960Z,84.80
2023-03-02T12:54:59.564Z,84.40
2023-03-02T13:10:08.342Z,86.50
2023-03-02T13:25:31.198Z,84.90
2023-03-02T13:40:37.995Z,87.30
2023-03-02T13:55:40.452Z,87.40
2023-03-02T14:10:43.467Z,88.90
2023-03-02T14:25:45.650Z,89.30
2023-03-02T14:40:47.907Z,89.00
2023-03-02T14:55:49.934Z,89.00
2023-03-02T15:10:51.947Z,90.60
2023-03-02T15:25:59.937Z,91.70
2023-03-02T15:41:07.466Z,92.50
2023-03-02T15:56:13.821Z,92.80
2023-03-02T16:11:18.918Z,93.40
2023-03-02T16:26:22.405Z,94.50
2023-03-02T16:41:24.841Z,95.50
2023-03-02T16:56:26.948Z,99.90
2023-03-02T17:11:31.995Z,99.90
2023-03-02T17:26:33.975Z,99.90
2023-03-02T17:41:37.795Z,99.90
2023-03-02T17:56:39.906Z,99.90
2023-03-02T18:11:42.504Z,99.90
2023-03-02T18:26:44.763Z,99.90
2023-03-02T18:41:46.715Z,99.90
2023-03-02T18:56:49.016Z,99.90
2023-03-02T19:11:51.252Z,99.90
2023-03-02T19:26:53.466Z,99.90
2023-03-02T19:41:55.465Z,99.90
2023-03-02T19:56:57.395Z,99.90
2023-03-02T20:12:00.343Z,99.90
2023-03-02T20:27:03.431Z,99.90
2023-03-02T20:42:07.320Z,99.90
2023-03-02T20:57:12.461Z,99.90
2023-03-02T21:12:14.536Z,99.90
2023-03-02T21:27:16.665Z,99.90
2023-03-02T21:42:18.663Z,99.90
2023-03-02T21:57:21.128Z,99.90
2023-03-02T22:12:24.198Z,99.90
2023-03-02T22:27:31.482Z,99.90
2023-03-02T22:42:33.958Z,99.90
2023-03-02T22:57:36.495Z,99.90
2023-03-02T23:12:46.917Z,99.90
2023-03-02T23:27:48.895Z,99.90
2023-03-02T23:42:51.265Z,99.90
2023-03-02T23:57:53.443Z,99.90
